Time;durP1;ratioP1;P1;durP2;ratioP2;P2;SDS_P1;SDS_P2;PMS_P1;PMS_P2;Temp;Humidity;BMP_temperature;BMP_pressure;BME280_temperature;BME280_humidity;BME280_pressure;Samples;Min_cycle;Max_cycle;Signal;HPM_P1;HPM_P2
2022/11/07 00:01:21;;;;;;;2.95;1.45;;;10.00;73.70;;;8.21;100.00;95960.66;4848484;28;20308;-72
2022/11/07 00:03:48;;;;;;;2.53;1.73;;;10.00;73.10;;;8.19;100.00;95946.94;4849221;28;20538;-72
2022/11/07 00:06:14;;;;;;;4.20;1.80;;;9.90;73.10;;;8.19;100.00;95954.78;4835365;28;20695;-72
2022/11/07 00:08:40;;;;;;;1.88;1.30;;;9.90;72.70;;;8.19;100.00;95957.41;4821321;28;20332;-72
2022/11/07 00:11:06;;;;;;;2.75;1.42;;;9.90;73.20;;;8.18;100.00;95961.03;4822749;28;20366;-73
2022/11/07 00:13:32;;;;;;;3.55;1.75;;;10.00;73.00;;;8.18;100.00;95955.78;4819021;28;20575;-72
2022/11/07 00:16:00;;;;;;;3.70;1.80;;;9.90;73.00;;;8.19;100.00;95957.41;4819983;28;20361;-72
2022/11/07 00:18:26;;;;;;;2.60;1.60;;;9.90;72.70;;;8.19;100.00;95960.03;4832289;28;20564;-73
2022/11/07 00:20:52;;;;;;;2.45;1.55;;;9.90;72.00;;;8.20;100.00;95964.28;4821013;28;20708;-72
2022/11/07 00:23:18;;;;;;;3.00;1.75;;;10.00;72.00;;;8.22;100.00;95970.16;4833721;28;20507;-73
2022/11/07 00:25:44;;;;;;;2.95;1.98;;;10.00;72.30;;;8.24;100.00;95981.25;4823088;28;20416;-72
2022/11/07 00:28:11;;;;;;;2.50;1.58;;;10.00;72.30;;;8.24;100.00;95981.25;4834409;28;20392;-72
2022/11/07 00:30:37;;;;;;;2.88;1.83;;;10.00;72.10;;;8.24;100.00;95982.09;4834051;28;20361;-74
2022/11/07 00:33:03;;;;;;;3.83;1.92;;;10.00;72.20;;;8.26;100.00;95979.28;4854696;28;20319;-71
2022/11/07 00:35:29;;;;;;;3.65;2.20;;;10.10;72.20;;;8.27;100.00;95986.16;4866671;28;20357;-70
2022/11/07 00:37:55;;;;;;;4.97;2.08;;;10.10;71.30;;;8.28;99.74;95987.78;4870264;28;20345;-73
2022/11/07 00:40:22;;;;;;;3.15;1.90;;;10.10;71.60;;;8.29;99.80;95990.22;4855155;28;20368;-70
2022/11/07 00:42:48;;;;;;;3.25;1.88;;;10.10;71.30;;;8.31;99.60;95992.66;4842606;28;20482;-71
2022/11/07 00:45:17;;;;;;;2.95;1.80;;;10.10;71.40;;;8.33;99.64;95988.06;4817583;28;20468;-72
2022/11/07 00:47:43;;;;;;;2.88;1.30;;;10.10;71.30;;;8.36;99.01;95992.16;4818924;28;20370;-72
2022/11/07 00:50:09;;;;;;;2.28;1.25;;;10.10;71.50;;;8.36;98.84;95985.09;4839601;28;20388;-71
2022/11/07 00:52:35;;;;;;;2.60;1.38;;;10.10;71.10;;;8.36;99.05;95990.34;4855602;28;20495;-71
2022/11/07 00:55:02;;;;;;;2.15;1.20;;;10.10;71.00;;;8.39;99.45;95990.00;4855595;28;20342;-71
2022/11/07 00:57:28;;;;;;;3.90;1.50;;;10.20;71.30;;;8.40;98.64;95989.03;4851872;28;20038;-71
2022/11/07 00:59:54;;;;;;;1.92;1.40;;;10.20;71.30;;;8.42;99.31;95989.66;4855601;28;20425;-71
2022/11/07 01:02:21;;;;;;;2.28;1.27;;;10.20;70.70;;;8.44;98.49;95992.09;4819711;28;20306;-71
2022/11/07 01:07:32;;;;;;;1.67;1.20;;;10.20;70.20;;;8.46;97.33;96001.41;4855262;28;20458;-71
2022/11/07 01:09:58;;;;;;;1.80;1.20;;;10.20;70.10;;;8.48;97.21;96004.66;4821982;28;20396;-71
2022/11/07 01:12:25;;;;;;;2.25;1.25;;;10.20;70.10;;;8.49;98.23;96008.91;4865809;28;20721;-71
2022/11/07 01:14:51;;;;;;;1.83;1.20;;;10.30;70.40;;;8.49;97.96;96016.78;4852989;28;20672;-71
2022/11/07 01:17:17;;;;;;;1.75;1.23;;;10.20;70.90;;;8.50;96.99;96012.34;4851875;28;20365;-71
2022/11/07 01:19:45;;;;;;;3.40;1.63;;;10.20;70.20;;;8.50;97.81;96013.16;4857447;28;20477;-72
2022/11/07 01:22:11;;;;;;;2.55;1.17;;;10.30;70.30;;;8.51;96.90;96006.13;4840077;28;20388;-72
2022/11/07 01:24:37;;;;;;;2.13;1.13;;;10.20;70.10;;;8.52;96.46;96016.41;4852113;28;20487;-73
2022/11/07 01:27:04;;;;;;;1.80;1.20;;;10.20;69.80;;;8.54;95.90;96009.19;4852619;28;20411;-72
2022/11/07 01:29:30;;;;;;;2.38;1.20;;;10.30;69.60;;;8.55;96.49;96010.81;4850946;28;20341;-72
2022/11/07 01:31:56;;;;;;;2.17;1.02;;;10.30;69.50;;;8.57;95.48;96019.31;4848288;28;20362;-72
2022/11/07 01:34:22;;;;;;;2.05;1.33;;;10.40;69.50;;;8.59;96.43;96017.31;4829992;28;20405;-72
2022/11/07 01:36:48;;;;;;;1.40;1.10;;;10.40;69.60;;;8.61;97.02;96021.59;4826066;28;20362;-72
2022/11/07 01:39:15;;;;;;;2.08;1.08;;;10.40;70.00;;;8.62;95.94;96025.84;4827654;28;20715;-72
2022/11/07 01:41:41;;;;;;;2.20;1.60;;;10.40;69.90;;;8.65;95.17;96025.50;4823210;28;20345;-72
2022/11/07 01:44:07;;;;;;;2.35;1.42;;;10.40;69.50;;;8.68;96.59;96035.63;4833799;28;20339;-71
2022/11/07 01:46:35;;;;;;;2.03;1.20;;;10.50;70.10;;;8.69;95.61;96039.88;4872264;28;20410;-71
2022/11/07 01:49:30;;;;;;;1.95;1.40;;;10.50;69.90;;;8.71;96.52;96037.88;4832900;28;20460;-71
2022/11/07 01:52:10;;;;;;;2.65;1.20;;;10.50;69.70;;;8.71;97.32;96032.63;4847263;28;20520;-70
2022/11/07 01:54:43;;;;;;;3.33;1.10;;;10.60;70.30;;;8.71;95.82;96035.25;4848939;28;20323;-71
2022/11/07 01:57:18;;;;;;;1.85;1.30;;;10.50;70.20;;;8.73;97.05;96038.50;4832683;28;20408;-71
2022/11/07 01:59:44;;;;;;;2.28;1.35;;;10.50;70.50;;;8.72;98.00;96036.88;4868832;28;20350;-71
2022/11/07 02:02:10;;;;;;;2.22;1.23;;;10.50;70.80;;;8.72;97.93;96036.88;4873329;28;20368;-71
2022/11/07 02:04:37;;;;;;;3.13;1.27;;;10.40;71.60;;;8.71;99.67;96036.06;4849618;28;20413;-73
2022/11/07 02:07:21;;;;;;;2.92;1.15;;;10.40;72.90;;;8.73;100.00;96038.50;4852336;28;20354;-72
2022/11/07 02:09:48;;;;;;;3.95;1.30;;;10.40;73.40;;;8.71;100.00;96030.81;4862032;28;20323;-72
2022/11/07 02:12:15;;;;;;;1.92;1.27;;;10.40;75.50;;;8.71;100.00;96030.81;4838840;28;20457;-71
2022/11/07 02:14:42;;;;;;;1.45;1.10;;;10.30;76.30;;;8.71;100.00;96030.00;4833018;28;20323;-73
2022/11/07 02:17:12;;;;;;;5.00;1.30;;;10.30;76.00;;;8.71;100.00;96019.53;4819530;28;20409;-73
2022/11/07 02:19:52;;;;;;;1.63;1.20;;;10.30;76.50;;;8.72;100.00;96021.16;4821968;28;20336;-73
2022/11/07 02:22:52;;;;;;;2.33;1.17;;;10.30;77.00;;;8.74;100.00;96024.41;4869008;28;20823;-72
2022/11/07 02:25:19;;;;;;;2.58;1.33;;;10.30;77.10;;;8.71;100.00;96017.72;4926797;28;20038;-68
2022/11/07 02:27:45;;;;;;;2.00;1.20;;;10.30;77.10;;;8.73;100.00;96014.91;4926379;28;20544;-71
2022/11/07 02:30:41;;;;;;;2.42;1.20;;;10.40;77.40;;;8.75;100.00;96020.78;4910564;28;20069;-71
2022/11/07 02:33:21;;;;;;;2.17;1.20;;;10.40;77.30;;;8.76;100.00;96018.00;4906837;28;20049;-73
2022/11/07 02:35:49;;;;;;;1.70;1.25;;;10.40;77.80;;;8.79;100.00;96019.44;4875788;28;20030;-71
2022/11/07 02:38:31;;;;;;;3.10;0.98;;;10.50;78.20;;;8.81;100.00;96012.19;4892587;28;20209;-71
2022/11/07 02:41:00;;;;;;;1.95;1.20;;;10.50;78.30;;;8.83;100.00;96012.88;4891535;28;20560;-71
2022/11/07 02:43:27;;;;;;;1.92;1.10;;;10.50;78.70;;;8.87;100.00;96011.50;4895727;28;20872;-69
2022/11/07 02:45:53;;;;;;;3.10;1.02;;;10.60;78.70;;;8.88;100.00;96010.50;4909741;28;20064;-70
2022/11/07 02:48:19;;;;;;;1.50;1.08;;;10.60;79.00;;;8.90;100.00;96013.75;4911778;28;20037;-71
2022/11/07 02:50:45;;;;;;;2.03;1.15;;;10.60;78.60;;;8.94;100.00;96025.50;4891550;28;20049;-70
2022/11/07 02:53:12;;;;;;;3.15;1.15;;;10.60;78.70;;;8.95;100.00;96021.91;4905412;28;20490;-73
2022/11/07 02:55:38;;;;;;;1.40;1.00;;;10.60;78.70;;;8.98;100.00;96020.72;4880626;28;20029;-71
2022/11/07 02:58:04;;;;;;;1.80;0.90;;;10.60;78.40;;;8.99;100.00;96020.53;4908200;28;20103;-71
2022/11/07 03:00:30;;;;;;;1.40;1.00;;;10.60;78.30;;;8.99;100.00;96017.91;4887461;28;20428;-71
2022/11/07 03:02:56;;;;;;;1.70;1.20;;;10.60;77.80;;;9.00;100.00;96018.72;4852354;28;20346;-72
2022/11/07 03:05:22;;;;;;;2.10;1.30;;;10.60;77.30;;;8.98;100.00;96026.78;4838953;28;20328;-71
2022/11/07 03:07:49;;;;;;;1.98;1.10;;;10.60;77.50;;;8.97;100.00;96019.91;4835322;28;20691;-73
2022/11/07 03:10:15;;;;;;;2.03;1.30;;;10.50;77.40;;;8.94;100.00;96020.28;4837384;28;20320;-74
2022/11/07 03:12:42;;;;;;;1.77;1.15;;;10.60;77.40;;;8.92;100.00;96024.06;4836777;28;20815;-72
2022/11/07 03:15:08;;;;;;;1.70;1.00;;;10.50;77.20;;;8.89;100.00;96027.88;4852308;28;20413;-73
2022/11/07 03:17:34;;;;;;;6.13;3.72;;;10.40;77.20;;;8.85;100.00;96030.03;4836688;28;20345;-72
2022/11/07 03:20:01;;;;;;;5.65;3.72;;;10.40;77.60;;;8.83;100.00;96039.91;4857562;28;20494;-72
2022/11/07 03:22:27;;;;;;;3.03;1.75;;;10.40;77.60;;;8.82;100.00;96040.06;4839092;28;20698;-71
2022/11/07 03:24:53;;;;;;;2.47;1.50;;;10.40;77.70;;;8.80;100.00;96050.72;4838673;28;20330;-71
2022/11/07 03:27:19;;;;;;;3.50;1.23;;;10.40;77.30;;;8.77;100.00;96050.28;4837406;28;20353;-71
2022/11/07 03:29:45;;;;;;;2.60;1.25;;;10.30;77.20;;;8.76;100.00;96059.13;4832997;28;20423;-71
2022/11/07 03:32:11;;;;;;;8.02;6.00;;;10.40;77.40;;;8.75;100.00;96057.50;4831864;28;20263;-71
2022/11/07 03:34:38;;;;;;;6.72;3.88;;;10.40;77.60;;;8.73;100.00;96052.44;4833078;28;20353;-74
2022/11/07 03:37:04;;;;;;;5.22;3.53;;;10.40;77.50;;;8.72;100.00;96058.69;4831436;28;20798;-71
2022/11/07 03:39:30;;;;;;;2.78;1.77;;;10.40;77.70;;;8.74;100.00;96066.38;4846631;28;20327;-71
2022/11/07 03:41:56;;;;;;;2.15;1.40;;;10.40;77.70;;;8.76;100.00;96064.38;4854062;28;20355;-72
2022/11/07 03:44:22;;;;;;;2.35;1.10;;;10.50;77.40;;;8.76;100.00;96069.63;4847798;28;20421;-70
2022/11/07 03:46:49;;;;;;;2.42;1.20;;;10.50;77.40;;;8.77;100.00;96064.19;4880735;28;20884;-68
2022/11/07 03:49:15;;;;;;;2.72;1.30;;;10.50;77.50;;;8.78;100.00;96062.38;4854190;28;20447;-71
2022/11/07 03:51:42;;;;;;;1.65;1.13;;;10.50;77.40;;;8.77;100.00;96056.34;4835159;28;20361;-71
2022/11/07 03:54:08;;;;;;;3.40;1.20;;;10.50;77.30;;;8.76;100.00;96059.13;4854324;28;20490;-71
2022/11/07 03:56:34;;;;;;;12.82;8.55;;;10.40;76.70;;;8.73;100.00;96062.13;4833397;28;20345;-72
2022/11/07 03:59:00;;;;;;;6.93;5.22;;;10.40;77.10;;;8.72;100.00;96063.13;4836209;28;20402;-73
2022/11/07 04:01:26;;;;;;;1.80;1.20;;;10.40;77.10;;;8.68;100.00;96067.09;4833690;28;20490;-72
2022/11/07 04:03:52;;;;;;;2.55;1.38;;;10.40;77.00;;;8.65;100.00;96063.00;4835282;28;20484;-71
2022/11/07 04:06:18;;;;;;;2.13;1.00;;;10.30;77.20;;;8.60;100.00;96070.59;4838545;28;20365;-71
2022/11/07 04:08:44;;;;;;;2.85;1.40;;;10.30;77.20;;;8.57;100.00;96063.88;4835229;28;20486;-72
2022/11/07 04:17:17;;;;;;;2.45;1.20;;;10.30;77.30;;;8.53;100.00;96059.16;4839276;28;20656;-72
2022/11/07 04:19:26;;;;;;;4.68;3.25;;;10.10;77.90;;;8.41;100.00;96076.31;4864803;28;20424;-70
2022/11/07 04:21:52;;;;;;;3.20;1.83;;;10.10;77.30;;;8.38;100.00;96082.75;4820768;28;20312;-72
2022/11/07 04:24:18;;;;;;;2.65;1.50;;;10.10;77.40;;;8.34;100.00;96081.44;4837099;28;20425;-73
2022/11/07 04:29:29;;;;;;;5.18;3.00;;;10.00;77.10;;;8.27;100.00;96088.34;4863343;28;20344;-70
2022/11/07 04:31:55;;;;;;;5.88;4.57;;;9.90;77.50;;;8.25;100.00;96092.94;4869948;28;20852;-70
2022/11/07 04:34:21;;;;;;;13.32;10.75;;;9.90;77.70;;;8.22;100.00;96081.00;4839103;28;20072;-71
2022/11/07 04:36:47;;;;;;;10.55;6.70;;;9.90;78.10;;;8.20;100.00;96096.09;4850728;28;20648;-71
2022/11/07 04:39:13;;;;;;;7.30;5.40;;;9.90;77.60;;;8.19;100.00;96093.66;4850338;28;20342;-71
2022/11/07 04:41:39;;;;;;;4.28;2.40;;;9.80;77.60;;;8.16;100.00;96088.75;4862665;28;20564;-71
2022/11/07 04:44:05;;;;;;;3.90;2.70;;;9.90;77.40;;;8.13;100.00;96083.84;4871558;28;20840;-72
2022/11/07 04:46:31;;;;;;;4.22;2.53;;;9.80;77.40;;;8.10;100.00;96084.19;4874203;28;20124;-70
2022/11/07 04:48:57;;;;;;;3.30;2.13;;;9.80;77.50;;;8.06;100.00;96082.91;4900671;28;20576;-69
2022/11/07 04:51:23;;;;;;;2.40;1.60;;;9.70;77.50;;;8.05;100.00;96091.75;4850861;28;20488;-68
2022/11/07 04:53:49;;;;;;;6.03;1.20;;;9.70;77.40;;;8.02;100.00;96092.13;4914211;28;20081;-70
2022/11/07 04:56:15;;;;;;;2.25;1.33;;;9.60;77.40;;;8.02;100.00;96097.34;4937173;28;20050;-70
2022/11/07 04:58:40;;;;;;;2.83;1.70;;;9.60;77.40;;;8.00;100.00;96094.91;4919354;28;20042;-70
2022/11/07 05:01:06;;;;;;;1.92;1.10;;;9.60;77.60;;;7.97;100.00;96085.59;4951286;28;20403;-70
2022/11/07 05:03:32;;;;;;;2.10;1.20;;;9.60;77.60;;;7.97;100.00;96090.84;4942512;28;20042;-71
2022/11/07 05:05:58;;;;;;;1.70;1.15;;;9.70;77.60;;;7.95;100.00;96084.97;4946768;28;20585;-71
2022/11/07 05:08:23;;;;;;;2.40;1.40;;;9.60;77.50;;;7.93;100.00;96089.56;4950523;28;20404;-71
2022/11/07 05:10:49;;;;;;;3.72;1.38;;;9.60;77.50;;;7.90;100.00;96089.88;4969787;28;20503;-71
2022/11/07 05:13:15;;;;;;;2.72;1.75;;;9.60;77.70;;;7.89;100.00;96098.72;4937017;28;20532;-69
2022/11/07 05:15:41;;;;;;;4.72;2.38;;;9.60;77.70;;;7.87;100.00;96105.94;4954866;28;20124;-71
2022/11/07 05:18:09;;;;;;;4.97;2.60;;;9.60;77.90;;;7.84;100.00;96100.22;4953899;28;20030;-70
2022/11/07 05:20:36;;;;;;;3.70;2.42;;;9.50;78.00;;;7.82;100.00;96091.72;4969431;28;20065;-71
2022/11/07 05:23:11;;;;;;;4.25;2.10;;;9.50;78.00;;;7.79;100.00;96092.91;4970974;28;20097;-70
2022/11/07 05:26:06;;;;;;;3.65;2.00;;;9.50;78.10;;;7.76;100.00;96093.25;4938504;28;20113;-71
2022/11/07 05:28:32;;;;;;;3.13;1.95;;;9.40;78.20;;;7.71;100.00;96106.03;4958015;28;20104;-71
2022/11/07 05:30:59;;;;;;;12.68;8.93;;;9.40;78.30;;;7.70;100.00;96101.78;4953839;28;20038;-71
2022/11/07 05:33:25;;;;;;;12.50;9.20;;;9.40;78.90;;;7.69;100.00;96113.22;4936850;28;20046;-71
2022/11/07 05:35:50;;;;;;;27.52;20.05;;;9.40;78.70;;;7.67;100.00;96112.56;4970582;28;20572;-70
2022/11/07 05:38:16;;;;;;;12.18;9.00;;;9.40;79.20;;;7.65;100.00;96117.16;4935414;28;20035;-71
2022/11/07 05:40:42;;;;;;;5.25;3.60;;;9.40;78.80;;;7.62;100.00;96113.09;4941983;28;20133;-70
2022/11/07 05:43:13;;;;;;;4.45;2.88;;;9.30;78.70;;;7.59;100.00;96121.28;4984687;28;20038;-71
2022/11/07 05:45:39;;;;;;;2.80;1.80;;;9.30;78.80;;;7.57;100.00;96125.06;4935717;28;20193;-70
2022/11/07 05:48:12;;;;;;;2.95;1.70;;;9.30;78.80;;;7.53;100.00;96116.75;4962920;28;20125;-71
2022/11/07 05:50:39;;;;;;;6.95;3.00;;;9.20;78.60;;;7.50;100.00;96114.47;4935768;28;20038;-70
2022/11/07 05:53:05;;;;;;;4.78;2.75;;;9.20;78.80;;;7.48;100.00;96121.66;4962035;28;20042;-71
2022/11/07 05:55:31;;;;;;;34.28;19.50;;;9.10;78.90;;;7.47;100.00;96124.44;4966575;28;20090;-71
2022/11/07 05:57:56;;;;;;;32.05;20.20;;;9.10;78.80;;;7.45;100.00;96127.22;4934484;28;20117;-70
2022/11/07 06:00:22;;;;;;;20.08;12.55;;;9.10;78.90;;;7.43;100.00;96128.38;4951123;28;20199;-71
2022/11/07 06:02:55;;;;;;;10.32;6.68;;;9.10;78.90;;;7.42;100.00;96131.97;4958157;28;20038;-72
2022/11/07 06:05:21;;;;;;;7.43;4.78;;;9.10;79.00;;;7.40;100.00;96129.53;4955910;28;20069;-72
2022/11/07 06:07:47;;;;;;;5.13;3.40;;;9.00;79.00;;;7.38;100.00;96128.88;4953870;28;20053;-72
2022/11/07 06:10:13;;;;;;;3.15;1.92;;;9.00;78.90;;;7.38;100.00;96132.31;4970622;28;20034;-72
2022/11/07 06:12:39;;;;;;;2.50;1.90;;;9.00;78.70;;;7.40;100.00;96133.94;4952708;28;20121;-72
2022/11/07 06:15:05;;;;;;;3.33;1.80;;;9.10;78.50;;;7.41;100.00;96136.41;4962913;28;20400;-72
2022/11/07 06:17:31;;;;;;;3.10;1.85;;;9.10;78.20;;;7.44;100.00;96140.47;4966045;28;20026;-72
2022/11/07 06:19:57;;;;;;;4.47;2.05;;;9.10;77.80;;;7.46;100.00;96138.50;4952706;28;20045;-71
2022/11/07 06:22:24;;;;;;;4.95;2.03;;;9.10;77.50;;;7.47;100.00;96142.75;4969965;28;20088;-71
2022/11/07 06:24:50;;;;;;;2.95;1.50;;;9.10;77.30;;;7.50;100.00;96147.69;4962232;28;20140;-72
2022/11/07 06:27:15;;;;;;;2.97;1.45;;;9.20;77.40;;;7.50;100.00;96151.09;4957070;28;20044;-71
2022/11/07 06:29:41;;;;;;;3.80;1.52;;;9.30;77.50;;;7.50;100.00;96150.28;4956989;28;20112;-72
2022/11/07 06:32:07;;;;;;;5.05;3.10;;;9.30;77.60;;;7.50;100.00;96155.53;4965530;28;20066;-72
2022/11/07 06:34:33;;;;;;;23.75;17.42;;;9.30;78.20;;;7.52;100.00;96151.75;4973347;28;20046;-72
2022/11/07 06:36:58;;;;;;;5.47;3.80;;;9.40;78.40;;;7.55;100.00;96155.84;4938314;28;20035;-72
2022/11/07 06:39:24;;;;;;;4.47;2.92;;;9.40;78.30;;;7.55;100.00;96147.97;4970398;28;20327;-71
2022/11/07 06:41:50;;;;;;;5.25;2.95;;;9.40;78.40;;;7.55;100.00;96153.22;4971788;28;20042;-72
2022/11/07 06:44:19;;;;;;;2.70;1.75;;;9.40;78.10;;;7.55;100.00;96154.03;4949811;28;20038;-72
2022/11/07 06:46:48;;;;;;;4.05;1.83;;;9.40;77.30;;;7.58;100.00;96158.09;4973733;28;20036;-72
2022/11/07 06:49:14;;;;;;;4.25;2.00;;;9.40;76.80;;;7.59;100.00;96152.69;4957500;28;20038;-71
2022/11/07 06:51:40;;;;;;;4.32;2.80;;;9.50;76.40;;;7.60;100.00;96161.38;4955318;28;20039;-72
2022/11/07 06:54:06;;;;;;;4.05;2.25;;;9.50;76.60;;;7.65;100.00;96169.53;4946071;28;20085;-72
2022/11/07 06:56:31;;;;;;;3.30;1.70;;;9.60;76.60;;;7.70;100.00;96166.44;4953822;28;20108;-71
2022/11/07 06:58:57;;;;;;;3.25;1.80;;;9.60;75.60;;;7.74;100.00;96168.53;4921599;28;20437;-72
2022/11/07 07:01:23;;;;;;;3.20;1.73;;;9.70;75.60;;;7.80;100.00;96167.84;4922747;28;20418;-72
2022/11/07 07:03:49;;;;;;;5.43;1.63;;;9.70;75.20;;;7.87;100.00;96168.78;4963835;28;20458;-72
2022/11/07 07:06:15;;;;;;;7.22;1.42;;;9.90;74.70;;;7.97;100.00;96176.47;4970356;28;20104;-72
2022/11/07 07:08:41;;;;;;;2.80;1.33;;;10.00;74.10;;;8.06;100.00;96187.69;4969294;28;20038;-72
2022/11/07 07:11:09;;;;;;;3.08;1.52;;;10.20;73.70;;;8.15;100.00;96170.97;4953717;28;20042;-72
2022/11/07 07:13:36;;;;;;;2.47;1.50;;;10.20;73.50;;;8.26;100.00;96176.63;4981261;28;20140;-72
2022/11/07 07:16:01;;;;;;;6.70;1.73;;;10.40;72.80;;;8.38;100.00;96179.72;4973061;28;20038;-73
2022/11/07 07:18:27;;;;;;;2.88;1.50;;;10.60;72.30;;;8.51;100.00;96185.19;4972387;28;20120;-72
2022/11/07 07:21:10;;;;;;;2.30;1.35;;;10.90;71.40;;;8.67;100.00;96175.59;4956006;28;20038;-72
2022/11/07 07:23:37;;;;;;;2.92;1.38;;;11.10;70.30;;;8.81;100.00;96177.44;4953160;28;20088;-72
2022/11/07 07:26:04;;;;;;;2.55;1.45;;;11.30;69.10;;;8.95;100.00;96183.72;4922593;28;20038;-71
2022/11/07 07:28:29;;;;;;;2.78;1.50;;;11.60;68.50;;;9.10;100.00;96176.72;4921736;28;20041;-71
2022/11/07 07:31:13;;;;;;;1.98;1.23;;;11.90;67.40;;;9.30;100.00;96182.28;4921732;28;20531;-71
2022/11/07 07:33:44;;;;;;;3.38;1.45;;;12.20;66.20;;;9.44;100.00;96179.66;4973060;28;20041;-69
2022/11/07 07:36:11;;;;;;;3.17;1.52;;;12.50;65.10;;;9.62;100.00;96176.69;4973170;28;20073;-70
2022/11/07 07:38:37;;;;;;;3.90;1.40;;;12.70;64.30;;;9.79;99.36;96178.13;4964322;28;20135;-71
2022/11/07 07:41:03;;;;;;;6.63;2.22;;;12.90;63.60;;;9.96;99.19;96183.22;4956177;28;20444;-71
2022/11/07 07:43:28;;;;;;;6.68;4.10;;;13.10;62.40;;;10.12;96.49;96183.81;4937775;28;20541;-71
2022/11/07 07:46:02;;;;;;;5.05;2.92;;;13.10;62.20;;;10.30;94.76;96183.44;4921755;28;20104;-71
2022/11/07 07:48:28;;;;;;;4.35;2.72;;;13.40;61.80;;;10.44;95.15;96173.91;4921676;28;20485;-71
2022/11/07 07:50:54;;;;;;;6.78;3.75;;;13.60;61.40;;;10.59;93.43;96181.72;4938532;28;20057;-71
2022/11/07 07:53:20;;;;;;;4.97;3.30;;;13.50;60.40;;;10.71;92.42;96182.88;4971989;28;20069;-70
2022/11/07 07:55:45;;;;;;;5.30;2.90;;;13.70;60.40;;;10.82;91.08;96177.09;4972466;28;20025;-71
2022/11/07 07:58:11;;;;;;;7.85;4.40;;;13.60;59.60;;;10.95;90.12;96174.59;4955890;28;20140;-70
2022/11/07 08:00:37;;;;;;;6.88;4.32;;;13.80;60.00;;;11.08;89.48;96178.34;4963551;28;20087;-71
2022/11/07 08:03:08;;;;;;;9.18;4.88;;;13.90;59.60;;;11.21;88.59;96171.38;4969074;28;20072;-71
2022/11/07 08:05:36;;;;;;;5.78;2.95;;;14.10;59.10;;;11.34;87.41;96175.94;4969437;28;20065;-71
2022/11/07 08:08:02;;;;;;;4.28;2.10;;;14.00;58.30;;;11.46;86.25;96178.84;4952544;28;20042;-70
2022/11/07 08:10:28;;;;;;;3.10;1.75;;;14.10;58.50;;;11.56;85.90;96177.50;4937096;28;20052;-70
2022/11/07 08:12:54;;;;;;;2.20;1.50;;;14.20;58.20;;;11.66;84.58;96177.97;4960506;28;20042;-71
2022/11/07 08:15:20;;;;;;;4.05;1.25;;;14.20;57.60;;;11.76;84.00;96182.06;4954228;28;20107;-70
2022/11/07 08:17:46;;;;;;;3.03;1.27;;;14.40;57.90;;;11.88;83.49;96191.09;4922233;28;20034;-71
2022/11/07 08:20:14;;;;;;;2.40;1.42;;;14.60;57.20;;;12.01;83.23;96180.63;4968343;28;20527;-70
2022/11/07 08:22:39;;;;;;;1.90;1.27;;;14.80;57.10;;;12.16;82.57;96186.56;4921722;28;20041;-71
2022/11/07 08:25:07;;;;;;;2.83;1.30;;;15.10;56.20;;;12.32;82.44;96182.78;4963691;28;20038;-71
2022/11/07 08:27:32;;;;;;;2.45;1.40;;;15.30;55.30;;;12.50;81.45;96179.59;4951644;28;20034;-71
2022/11/07 08:29:58;;;;;;;1.88;1.20;;;15.70;54.80;;;12.73;81.60;96185.34;4921174;28;20477;-70
2022/11/07 08:32:26;;;;;;;2.47;1.17;;;16.40;53.30;;;12.96;81.04;96184.97;4953476;28;20076;-72
2022/11/07 08:34:52;;;;;;;2.25;1.13;;;16.80;52.10;;;13.22;80.25;96178.91;4920889;28;20281;-72
2022/11/07 08:37:18;;;;;;;2.05;1.15;;;17.20;50.70;;;13.47;79.69;96181.75;4936017;28;20456;-71
2022/11/07 08:39:44;;;;;;;2.28;1.20;;;17.80;49.90;;;13.75;79.88;96186.78;4982455;28;20030;-72
2022/11/07 08:42:09;;;;;;;6.82;1.50;;;18.30;49.20;;;14.00;77.87;96187.72;4952309;28;20121;-71
2022/11/07 08:44:35;;;;;;;2.63;1.60;;;18.40;47.50;;;14.25;78.14;96184.38;4936754;28;20069;-72
2022/11/07 08:47:02;;;;;;;2.45;1.30;;;18.90;47.70;;;14.53;76.91;96187.56;4943655;28;20080;-69
2022/11/07 08:49:28;;;;;;;2.90;1.13;;;19.30;45.70;;;14.79;75.48;96183.97;4969871;28;20026;-71
2022/11/07 08:51:54;;;;;;;2.42;1.23;;;19.50;44.90;;;15.00;74.30;96183.63;4956086;28;20053;-71
2022/11/07 08:54:20;;;;;;;4.07;1.20;;;19.10;45.90;;;15.17;72.62;96188.41;4955662;28;20773;-71
2022/11/07 08:56:49;;;;;;;2.00;1.02;;;19.40;44.70;;;15.39;70.76;96183.53;4966089;28;20058;-71
2022/11/07 08:59:15;;;;;;;3.80;1.33;;;20.00;43.90;;;15.59;71.21;96192.16;4975942;28;20045;-71
2022/11/07 09:01:40;;;;;;;2.00;1.00;;;20.30;43.00;;;15.85;70.76;96191.13;4951752;28;20037;-70
2022/11/07 09:04:06;;;;;;;2.55;1.10;;;21.10;42.10;;;16.11;70.01;96200.63;4968609;28;20050;-72
2022/11/07 09:06:32;;;;;;;2.47;1.10;;;21.50;41.70;;;16.37;69.99;96195.03;4958555;28;20128;-72
2022/11/07 09:08:58;;;;;;;1.90;1.10;;;22.00;40.60;;;16.62;68.91;96197.56;4975556;28;20062;-71
2022/11/07 09:11:25;;;;;;;2.10;1.20;;;22.60;39.80;;;16.92;68.41;96191.47;4967404;28;20043;-71
2022/11/07 09:13:51;;;;;;;1.63;1.00;;;23.30;38.20;;;17.21;68.04;96190.63;4936282;28;20042;-72
2022/11/07 09:16:17;;;;;;;2.08;0.90;;;23.90;37.10;;;17.49;66.53;96179.34;4957121;28;20025;-71
2022/11/07 09:18:44;;;;;;;2.78;0.80;;;24.50;35.60;;;17.85;66.11;96190.81;4959505;28;20493;-69
2022/11/07 09:21:10;;;;;;;1.52;0.65;;;25.70;34.50;;;18.17;65.73;96183.28;4935960;28;20089;-69
2022/11/07 09:23:35;;;;;;;2.55;0.80;;;26.50;31.80;;;18.50;64.06;96182.59;4951616;28;20030;-70
2022/11/07 09:26:01;;;;;;;1.00;0.70;;;27.30;30.80;;;18.84;63.90;96189.69;4937270;28;20035;-70
2022/11/07 09:28:27;;;;;;;1.75;0.60;;;28.10;30.10;;;19.22;63.56;96190.88;4967347;28;20042;-71
2022/11/07 09:30:54;;;;;;;1.25;0.75;;;29.00;28.90;;;19.56;62.34;96181.09;4952222;28;20113;-70
2022/11/07 09:33:20;;;;;;;1.70;0.70;;;29.00;27.80;;;19.86;61.15;96192.19;4935577;28;20174;-70
2022/11/07 09:35:47;;;;;;;1.20;0.70;;;29.80;27.30;;;20.22;60.04;96175.88;4954627;28;20030;-69
2022/11/07 09:38:13;;;;;;;1.33;0.70;;;30.10;26.40;;;20.57;59.88;96187.00;4948522;28;20038;-70
2022/11/07 09:40:46;;;;;;;1.55;0.70;;;30.80;26.50;;;20.90;54.33;96175.34;4976690;28;20490;-69
2022/11/07 09:43:45;;;;;;;0.73;0.40;;;31.00;25.60;;;21.33;49.53;96161.06;4937400;28;20026;-69
2022/11/07 09:46:27;;;;;;;3.95;0.80;;;31.40;24.90;;;21.71;48.94;96169.91;4987407;28;20154;-71
2022/11/07 09:49:30;;;;;;;1.65;0.43;;;31.60;24.60;;;22.17;46.01;96160.31;4965655;28;20022;-71
2022/11/07 09:52:02;;;;;;;1.88;0.60;;;32.30;23.80;;;22.54;47.96;96165.56;4987057;28;20030;-71
2022/11/07 09:54:31;;;;;;;1.45;0.70;;;33.20;23.40;;;22.90;51.64;96171.88;4990685;28;20062;-72
2022/11/07 09:56:58;;;;;;;1.17;0.45;;;33.40;23.30;;;23.20;51.97;96173.00;4966547;28;20058;-71
2022/11/07 09:59:40;;;;;;;2.40;0.80;;;33.80;22.80;;;23.39;43.52;96157.16;4970603;28;20088;-71
2022/11/07 10:02:18;;;;;;;2.78;0.63;;;33.20;22.50;;;23.38;42.64;96155.56;4973005;28;20081;-72
2022/11/07 10:04:44;;;;;;;8.00;0.80;;;33.00;22.70;;;23.34;48.19;96170.59;4955895;28;20034;-71
2022/11/07 10:07:50;;;;;;;2.92;0.50;;;32.50;23.80;;;23.29;40.96;96154.47;4984102;28;20430;-70
2022/11/07 10:10:45;;;;;;;1.13;0.55;;;31.50;23.90;;;23.38;42.60;96166.31;4956326;28;20085;-71
2022/11/07 10:13:48;;;;;;;1.42;0.50;;;31.70;24.50;;;23.68;41.21;96152.88;4985510;28;20042;-71
2022/11/07 10:16:39;;;;;;;2.33;0.73;;;32.60;23.10;;;24.05;42.68;96160.63;5002137;28;20069;-71
2022/11/07 10:19:38;;;;;;;1.60;0.80;;;33.70;22.80;;;24.27;40.51;96156.78;4970603;28;20023;-71
2022/11/07 10:22:26;;;;;;;1.45;0.70;;;32.00;23.80;;;24.00;42.33;96157.94;5003662;28;20574;-71
2022/11/07 10:25:19;;;;;;;3.10;0.65;;;30.90;25.10;;;24.12;40.30;96155.75;4974272;28;20031;-71
2022/11/07 10:28:04;;;;;;;2.25;0.80;;;32.70;24.30;;;24.20;41.49;96157.06;4987804;28;20034;-71
2022/11/07 10:30:29;;;;;;;2.45;0.75;;;32.40;24.40;;;24.26;43.98;96168.63;4974003;28;20113;-70
2022/11/07 10:33:15;;;;;;;10.85;0.77;;;31.10;24.90;;;24.23;40.23;96153.03;4961835;28;20076;-70
2022/11/07 10:35:44;;;;;;;2.40;0.80;;;30.60;25.70;;;24.00;41.75;96151.75;4955780;28;20436;-70
2022/11/07 10:38:27;;;;;;;2.77;0.63;;;28.80;26.80;;;23.54;39.57;96157.19;4970067;28;20177;-70
2022/11/07 10:40:53;;;;;;;1.90;0.50;;;27.20;29.30;;;23.22;42.37;96163.59;4967316;28;20507;-70